createdAt,value
2023-02-25T00:00:19.741Z,10.50
2023-02-25T00:02:50.068Z,10.90
2023-02-25T00:05:19.468Z,9.60
2023-02-25T00:07:51.938Z,11.00
2023-02-25T00:10:21.037Z,11.20
2023-02-25T00:12:51.261Z,9.90
2023-02-25T00:15:20.048Z,10.60
2023-02-25T00:17:50.079Z,10.20
2023-02-25T00:20:22.842Z,11.30
2023-02-25T00:22:52.253Z,11.10
2023-02-25T00:25:21.328Z,10.70
2023-02-25T00:27:51.868Z,9.60
2023-02-25T00:30:20.871Z,10.50
2023-02-25T00:32:50.611Z,10.40
2023-02-25T00:35:19.265Z,10.90
2023-02-25T00:37:48.081Z,9.80
2023-02-25T00:40:18.184Z,11.30
2023-02-25T00:42:47.162Z,9.70
2023-02-25T00:45:15.955Z,10.40
2023-02-25T00:47:45.149Z,10.20
2023-02-25T00:50:14.962Z,10.50
2023-02-25T00:52:44.057Z,9.60
2023-02-25T00:55:16.383Z,10.00
2023-02-25T00:57:45.422Z,9.80
2023-02-25T01:00:17.598Z,9.80
2023-02-25T01:02:46.629Z,9.40
2023-02-25T01:05:15.668Z,10.40
2023-02-25T01:07:45.072Z,9.70
2023-02-25T01:10:14.062Z,8.50
2023-02-25T01:12:48.585Z,9.40
2023-02-25T01:15:17.995Z,9.90
2023-02-25T01:17:47.081Z,8.60
2023-02-25T01:20:20.374Z,8.60
2023-02-25T01:22:49.301Z,8.00
2023-02-25T01:25:25.839Z,8.80
2023-02-25T01:27:56.672Z,10.20
2023-02-25T01:30:25.574Z,9.40
2023-02-25T01:32:54.920Z,8.60
2023-02-25T01:35:24.061Z,9.20
2023-02-25T01:37:55.727Z,8.10
2023-02-25T01:40:24.852Z,8.70
2023-02-25T01:42:55.758Z,8.80
2023-02-25T01:45:28.699Z,8.60
2023-02-25T01:48:02.068Z,8.70
2023-02-25T01:50:37.999Z,8.70
2023-02-25T01:53:06.674Z,8.00
2023-02-25T01:55:35.464Z,8.30
2023-02-25T01:58:03.734Z,7.90
2023-02-25T02:00:32.141Z,8.30
2023-02-25T02:06:09.943Z,7.50
2023-02-25T02:08:39.129Z,7.80
2023-02-25T02:11:08.748Z,7.60
2023-02-25T02:13:41.732Z,8.20
2023-02-25T02:16:19.550Z,8.90
2023-02-25T02:18:51.796Z,8.70
2023-02-25T02:21:22.524Z,8.50
2023-02-25T02:24:06.679Z,8.70
2023-02-25T02:26:50.113Z,8.40
2023-02-25T02:29:24.216Z,7.80
2023-02-25T02:32:14.996Z,7.80
2023-02-25T02:34:53.031Z,7.70
2023-02-25T02:37:25.406Z,7.80
2023-02-25T02:40:16.716Z,8.60
2023-02-25T02:42:55.744Z,6.00
2023-02-25T02:45:35.029Z,8.30
2023-02-25T02:48:10.002Z,7.80
2023-02-25T02:50:43.886Z,7.50
2023-02-25T02:53:32.977Z,6.90
2023-02-25T02:56:03.724Z,7.80
2023-02-25T02:58:41.718Z,7.20
2023-02-25T03:01:18.341Z,7.30
2023-02-25T03:03:50.302Z,7.60
2023-02-25T03:06:25.205Z,8.50
2023-02-25T03:11:25.508Z,8.10
2023-02-25T03:13:54.912Z,8.30
2023-02-25T03:16:36.475Z,9.10
2023-02-25T03:19:21.776Z,8.80
2023-02-25T03:22:03.312Z,8.10
2023-02-25T03:24:36.069Z,8.90
2023-02-25T03:27:20.919Z,8.60
2023-02-25T03:29:52.769Z,8.90
2023-02-25T03:32:22.637Z,9.50
2023-02-25T03:34:52.306Z,8.30
2023-02-25T03:37:22.939Z,8.50
2023-02-25T03:39:56.015Z,8.70
2023-02-25T03:42:31.694Z,8.80
2023-02-25T03:45:02.512Z,8.50
2023-02-25T03:47:33.306Z,8.10
2023-02-25T03:50:09.961Z,8.80
2023-02-25T03:52:40.280Z,8.00
2023-02-25T03:55:16.767Z,8.70
2023-02-25T03:57:47.546Z,8.80
2023-02-25T04:00:23.049Z,8.40
2023-02-25T04:02:53.914Z,8.70
2023-02-25T04:05:23.620Z,8.40
2023-02-25T04:07:52.772Z,7.80
2023-02-25T04:10:22.319Z,7.90
2023-02-25T04:12:54.804Z,8.20
2023-02-25T04:15:23.317Z,8.40
2023-02-25T04:17:51.967Z,8.70
2023-02-25T04:20:21.875Z,7.70
2023-02-25T04:22:50.670Z,8.00
2023-02-25T04:25:20.290Z,8.50
2023-02-25T04:27:53.169Z,8.50
2023-02-25T04:30:22.251Z,7.60
2023-02-25T04:32:51.047Z,8.40
2023-02-25T04:35:21.361Z,8.10
2023-02-25T04:37:50.361Z,8.90
2023-02-25T04:40:20.786Z,8.20
2023-02-25T04:42:52.643Z,8.20
2023-02-25T04:45:27.124Z,8.00
2023-02-25T04:47:59.943Z,7.10
2023-02-25T04:50:28.937Z,8.10
2023-02-25T04:53:00.744Z,8.80
2023-02-25T04:57:58.889Z,9.60
2023-02-25T05:00:28.009Z,8.80
2023-02-25T05:02:57.179Z,8.20
2023-02-25T05:05:26.387Z,8.60
2023-02-25T05:07:55.216Z,9.70
2023-02-25T05:10:23.805Z,9.40
2023-02-25T05:12:54.479Z,9.80
2023-02-25T05:15:29.000Z,9.10
2023-02-25T05:17:57.888Z,8.60
2023-02-25T05:20:26.764Z,10.30
2023-02-25T05:22:55.671Z,10.60
2023-02-25T05:25:24.462Z,10.50
2023-02-25T05:27:53.559Z,10.20
2023-02-25T05:30:22.959Z,10.90
2023-02-25T05:32:52.291Z,9.50
2023-02-25T05:35:21.250Z,9.50
2023-02-25T05:37:50.144Z,10.60
2023-02-25T05:40:20.874Z,11.40
2023-02-25T05:42:49.976Z,11.30
2023-02-25T05:45:18.857Z,11.30
2023-02-25T05:47:48.369Z,12.50
2023-02-25T05:50:17.871Z,11.00
2023-02-25T05:52:47.372Z,11.20
2023-02-25T05:55:19.267Z,10.70
2023-02-25T05:57:49.045Z,9.80
2023-02-25T06:00:21.729Z,10.30
2023-02-25T06:02:50.930Z,10.60
2023-02-25T06:05:20.219Z,12.20
2023-02-25T06:07:50.981Z,9.70
2023-02-25T06:10:19.958Z,10.30
2023-02-25T06:12:54.588Z,11.00
2023-02-25T06:15:23.461Z,11.20
2023-02-25T06:17:52.346Z,9.20
2023-02-25T06:20:21.544Z,8.50
2023-02-25T06:22:51.973Z,8.80
2023-02-25T06:25:20.965Z,8.80
2023-02-25T06:27:50.060Z,8.50
2023-02-25T06:30:19.373Z,10.30
2023-02-25T06:32:49.154Z,9.50
2023-02-25T06:35:24.723Z,9.80
2023-02-25T06:37:59.295Z,9.60
2023-02-25T06:40:29.254Z,9.80
2023-02-25T06:43:02.957Z,9.70
2023-02-25T06:45:32.304Z,8.80
2023-02-25T06:48:01.356Z,9.30
2023-02-25T06:50:30.280Z,9.20
2023-02-25T06:52:59.645Z,10.00
2023-02-25T06:55:28.439Z,10.00
2023-02-25T06:57:57.326Z,9.30
2023-02-25T07:00:26.628Z,9.50
2023-02-25T07:02:56.027Z,8.40
2023-02-25T07:05:29.628Z,9.90
2023-02-25T07:07:58.522Z,9.90
2023-02-25T07:10:27.429Z,8.80
2023-02-25T07:12:55.994Z,9.40
2023-02-25T07:15:25.092Z,9.40
2023-02-25T07:17:53.675Z,9.90
2023-02-25T07:20:22.768Z,10.30
2023-02-25T07:22:51.752Z,10.70
2023-02-25T07:25:20.746Z,9.10
2023-02-25T07:27:50.095Z,9.60
2023-02-25T07:30:19.450Z,10.90
2023-02-25T07:32:49.195Z,10.80
2023-02-25T07:35:18.176Z,10.30
2023-02-25T07:37:47.358Z,10.00
2023-02-25T07:40:17.296Z,10.40
2023-02-25T07:42:46.076Z,10.00
2023-02-25T07:45:15.037Z,9.50
2023-02-25T07:47:44.163Z,10.70
2023-02-25T07:50:13.859Z,10.60
2023-02-25T07:52:43.773Z,9.50
2023-02-25T07:55:12.768Z,9.30
2023-02-25T07:57:41.724Z,10.40
2023-02-25T08:00:11.736Z,8.60
2023-02-25T08:02:44.772Z,10.20
2023-02-25T08:05:13.779Z,8.90
2023-02-25T08:07:45.562Z,10.00
2023-02-25T08:10:14.708Z,11.40
2023-02-25T08:12:44.925Z,11.70
2023-02-25T08:15:16.639Z,10.80
2023-02-25T08:17:45.888Z,10.20
2023-02-25T08:20:15.696Z,9.60
2023-02-25T08:22:45.043Z,8.50
2023-02-25T08:25:13.884Z,8.50
2023-02-25T08:27:44.412Z,8.90
2023-02-25T08:30:13.715Z,8.70
2023-02-25T08:32:43.449Z,9.50
2023-02-25T08:35:14.379Z,9.00
2023-02-25T08:37:46.256Z,8.80
2023-02-25T08:40:15.138Z,9.30
2023-02-25T08:42:44.963Z,9.60
2023-02-25T08:45:14.012Z,8.90
2023-02-25T08:47:46.189Z,8.70
2023-02-25T08:50:16.312Z,8.70
2023-02-25T08:52:48.361Z,8.80
2023-02-25T08:55:19.313Z,7.90
2023-02-25T08:57:49.313Z,8.80
2023-02-25T09:00:19.883Z,10.30
2023-02-25T09:02:49.658Z,9.30
2023-02-25T09:05:20.672Z,9.10
2023-02-25T09:07:49.686Z,8.60
2023-02-25T09:10:19.702Z,8.30
2023-02-25T09:12:50.130Z,9.00
2023-02-25T09:15:22.262Z,8.90
2023-02-25T09:17:53.544Z,8.60
2023-02-25T09:20:24.997Z,8.50
2023-02-25T09:22:57.267Z,8.90
2023-02-25T09:25:26.462Z,8.70
2023-02-25T09:27:57.119Z,8.30
2023-02-25T09:30:26.778Z,9.20
2023-02-25T09:32:56.848Z,8.10
2023-02-25T09:35:25.958Z,8.30
2023-02-25T09:37:54.989Z,8.60
2023-02-25T09:40:24.525Z,10.40
2023-02-25T09:43:02.114Z,10.30
2023-02-25T09:45:31.208Z,10.50
2023-02-25T09:48:01.547Z,9.60
2023-02-25T09:50:36.355Z,9.80
2023-02-25T09:53:15.656Z,10.20
2023-02-25T09:55:50.070Z,8.70
2023-02-25T09:58:45.951Z,7.90
2023-02-25T10:01:27.830Z,8.30
2023-02-25T10:04:19.354Z,9.70
2023-02-25T10:06:49.285Z,8.90
2023-02-25T10:09:56.358Z,11.40
2023-02-25T10:12:39.739Z,8.90
2023-02-25T10:15:26.801Z,9.40
2023-02-25T10:18:05.427Z,8.40
2023-02-25T10:20:46.696Z,9.50
2023-02-25T10:23:31.667Z,9.00
2023-02-25T10:26:14.866Z,9.60
2023-02-25T10:28:44.397Z,7.60
2023-02-25T10:31:16.231Z,9.00
2023-02-25T10:33:47.450Z,8.60
2023-02-25T10:36:18.540Z,8.30
2023-02-25T10:38:52.274Z,9.20
2023-02-25T10:41:23.459Z,8.10
2023-02-25T10:43:53.097Z,8.90
2023-02-25T10:46:24.686Z,10.60
2023-02-25T10:48:57.157Z,10.40
2023-02-25T10:51:29.951Z,11.00
2023-02-25T10:54:13.027Z,9.40
2023-02-25T10:56:44.894Z,10.40
2023-02-25T10:59:22.691Z,9.70
2023-02-25T11:01:53.257Z,9.40
2023-02-25T11:04:31.538Z,10.80
2023-02-25T11:07:00.315Z,9.30
2023-02-25T11:09:34.019Z,10.70
2023-02-25T11:12:08.655Z,9.90
2023-02-25T11:14:38.566Z,9.50
2023-02-25T11:17:12.670Z,12.00
2023-02-25T11:20:07.266Z,11.50
2023-02-25T11:22:40.267Z,11.00
2023-02-25T11:25:20.285Z,10.00
2023-02-25T11:27:55.119Z,11.00
2023-02-25T11:30:30.545Z,11.60
2023-02-25T11:32:59.571Z,11.10
2023-02-25T11:35:36.034Z,11.20
2023-02-25T11:38:25.915Z,10.90
2023-02-25T11:40:55.224Z,14.30
2023-02-25T11:43:32.190Z,15.90
2023-02-25T11:46:18.393Z,12.10
2023-02-25T11:48:54.751Z,12.00
2023-02-25T11:51:30.976Z,12.40
2023-02-25T11:54:26.338Z,12.10
2023-02-25T11:57:10.705Z,12.60
2023-02-25T11:59:57.908Z,12.50
2023-02-25T12:02:52.992Z,12.00
2023-02-25T12:06:14.338Z,13.70
2023-02-25T12:09:07.940Z,13.00
2023-02-25T12:11:52.253Z,12.60
2023-02-25T12:15:04.556Z,13.50
2023-02-25T12:17:47.979Z,14.20
2023-02-25T12:20:25.610Z,14.10
2023-02-25T12:23:25.313Z,13.90
2023-02-25T12:26:10.696Z,12.00
2023-02-25T12:29:02.289Z,14.20
2023-02-25T12:31:56.854Z,13.80
2023-02-25T12:34:53.026Z,12.90
2023-02-25T12:37:56.719Z,13.10
2023-02-25T12:40:26.327Z,15.40
2023-02-25T12:43:26.855Z,11.60
2023-02-25T12:46:46.757Z,13.20
2023-02-25T12:49:24.949Z,12.60
2023-02-25T12:52:17.537Z,14.30
2023-02-25T12:54:58.162Z,15.10
2023-02-25T12:57:55.007Z,13.80
2023-02-25T13:00:30.326Z,15.20
2023-02-25T13:03:27.287Z,14.60
2023-02-25T13:05:57.576Z,14.00
2023-02-25T13:08:48.015Z,14.50
2023-02-25T13:12:10.226Z,13.20
2023-02-25T13:15:10.814Z,14.40
2023-02-25T13:18:09.732Z,15.70
2023-02-25T13:21:12.057Z,15.10
2023-02-25T13:24:05.116Z,14.00
2023-02-25T13:27:00.293Z,12.70
2023-02-25T13:29:53.225Z,13.40
2023-02-25T13:32:45.785Z,14.50
2023-02-25T13:35:23.449Z,16.40
2023-02-25T13:38:00.126Z,14.80
2023-02-25T13:40:43.412Z,16.30
2023-02-25T13:43:42.001Z,12.70
2023-02-25T13:46:13.642Z,11.60
2023-02-25T13:49:30.368Z,12.80
2023-02-25T13:52:28.255Z,12.70
2023-02-25T13:55:37.879Z,13.30
2023-02-25T13:58:25.714Z,15.40
2023-02-25T14:01:18.095Z,15.90
2023-02-25T14:04:13.697Z,17.20
2023-02-25T14:07:21.178Z,14.10
2023-02-25T14:10:04.503Z,12.90
2023-02-25T14:12:49.261Z,11.00
2023-02-25T14:15:39.532Z,12.40
2023-02-25T14:18:12.542Z,10.70
2023-02-25T14:21:22.986Z,11.60
2023-02-25T14:24:36.742Z,10.10
2023-02-25T14:27:27.668Z,10.90
2023-02-25T14:30:15.385Z,11.30
2023-02-25T14:32:50.494Z,10.40
2023-02-25T14:35:28.520Z,10.90
2023-02-25T14:38:10.379Z,12.00
2023-02-25T14:40:48.909Z,11.20
2023-02-25T14:43:32.582Z,11.70
2023-02-25T14:46:04.370Z,13.60
2023-02-25T14:48:41.918Z,12.50
2023-02-25T14:51:47.761Z,11.70
2023-02-25T14:54:54.759Z,11.80
2023-02-25T14:57:42.487Z,12.60
2023-02-25T15:00:23.874Z,12.60
2023-02-25T15:03:00.648Z,12.20
2023-02-25T15:06:06.101Z,11.20
2023-02-25T15:08:46.153Z,12.20
2023-02-25T15:11:39.234Z,13.40
2023-02-25T15:14:17.108Z,12.70
2023-02-25T15:17:08.214Z,12.40
2023-02-25T15:20:10.130Z,13.90
2023-02-25T15:23:03.654Z,14.20
2023-02-25T15:25:38.426Z,13.80
2023-02-25T15:28:29.602Z,14.10
2023-02-25T15:30:59.278Z,13.10
2023-02-25T15:34:17.464Z,12.90
2023-02-25T15:36:50.440Z,13.00
2023-02-25T15:39:54.372Z,14.00
2023-02-25T15:42:51.192Z,15.80
2023-02-25T15:45:29.611Z,14.70
2023-02-25T15:48:07.649Z,14.80
2023-02-25T15:50:42.345Z,14.90
2023-02-25T15:53:21.565Z,14.30
2023-02-25T15:55:52.011Z,14.30
2023-02-25T15:58:24.548Z,15.30
2023-02-25T16:00:57.859Z,15.90
2023-02-25T16:03:36.222Z,16.00
2023-02-25T16:06:21.444Z,14.70
2023-02-25T16:08:50.127Z,15.40
2023-02-25T16:11:21.242Z,15.80
2023-02-25T16:13:50.264Z,17.60
2023-02-25T16:16:19.181Z,14.00
2023-02-25T16:18:53.576Z,15.10
2023-02-25T16:21:24.880Z,14.60
2023-02-25T16:23:54.732Z,15.10
2023-02-25T16:26:31.510Z,14.60
2023-02-25T16:29:22.717Z,15.00
2023-02-25T16:32:20.559Z,17.60
2023-02-25T16:34:55.625Z,16.70
2023-02-25T16:37:30.067Z,16.70
2023-02-25T16:39:58.997Z,16.50
2023-02-25T16:42:29.055Z,15.70
2023-02-25T16:45:01.174Z,16.50
2023-02-25T16:47:32.084Z,17.00
2023-02-25T16:50:08.223Z,15.40
2023-02-25T16:52:46.018Z,16.60
2023-02-25T16:55:24.033Z,17.50
2023-02-25T16:58:14.730Z,17.70
2023-02-25T17:00:54.971Z,17.80
2023-02-25T17:03:26.268Z,18.70
2023-02-25T17:06:07.255Z,20.50
2023-02-25T17:11:05.811Z,19.10
2023-02-25T17:13:36.161Z,19.70
2023-02-25T17:16:05.734Z,18.70
2023-02-25T17:18:49.071Z,18.60
2023-02-25T17:21:35.532Z,19.00
2023-02-25T17:24:09.947Z,19.40
2023-02-25T17:26:43.645Z,18.60
2023-02-25T17:29:14.888Z,21.50
2023-02-25T17:31:45.728Z,22.10
2023-02-25T17:34:16.916Z,23.10
2023-02-25T17:36:46.934Z,21.60
2023-02-25T17:39:18.053Z,21.50
2023-02-25T17:41:48.396Z,25.10
2023-02-25T17:44:36.438Z,23.50
2023-02-25T17:47:06.306Z,24.70
2023-02-25T17:49:36.538Z,23.90
2023-02-25T17:52:27.183Z,26.90
2023-02-25T17:55:22.719Z,27.60
2023-02-25T17:57:54.140Z,29.60
2023-02-25T18:00:26.285Z,28.30
2023-02-25T18:03:30.934Z,27.50
2023-02-25T18:06:03.848Z,28.20
2023-02-25T18:08:52.111Z,30.80
2023-02-25T18:11:39.503Z,29.80
2023-02-25T18:14:26.192Z,31.20
2023-02-25T18:16:55.814Z,31.50
2023-02-25T18:19:35.953Z,33.70
2023-02-25T18:22:05.730Z,34.50
2023-02-25T18:24:36.280Z,30.70
2023-02-25T18:29:49.637Z,32.50
2023-02-25T18:32:18.623Z,33.40
2023-02-25T18:34:47.823Z,35.10
2023-02-25T18:37:17.743Z,34.20
2023-02-25T18:39:48.900Z,34.20
2023-02-25T18:42:18.292Z,32.70
2023-02-25T18:44:47.579Z,31.00
2023-02-25T18:47:17.291Z,33.80
2023-02-25T18:49:46.697Z,33.20
2023-02-25T18:52:25.542Z,32.30
2023-02-25T18:54:55.636Z,35.70
2023-02-25T18:57:26.398Z,33.60
2023-02-25T18:59:55.666Z,34.00
2023-02-25T19:02:30.525Z,34.80
2023-02-25T19:05:01.291Z,36.30
2023-02-25T19:07:33.101Z,33.50
2023-02-25T19:10:02.262Z,26.60
2023-02-25T19:12:32.206Z,35.40
2023-02-25T19:15:03.075Z,36.40
2023-02-25T19:17:32.444Z,37.00
2023-02-25T19:20:01.435Z,36.10
2023-02-25T19:22:30.648Z,36.40
2023-02-25T19:25:00.663Z,36.00
2023-02-25T19:27:30.033Z,34.20
2023-02-25T19:29:59.049Z,35.60
2023-02-25T19:32:28.064Z,35.80
2023-02-25T19:34:56.931Z,35.10
2023-02-25T19:37:28.003Z,36.00
2023-02-25T19:39:56.968Z,35.80
2023-02-25T19:42:25.849Z,36.40
2023-02-25T19:44:54.756Z,36.20
2023-02-25T19:47:23.838Z,34.90
2023-02-25T19:49:56.518Z,34.80
2023-02-25T19:52:29.568Z,35.10
2023-02-25T19:54:58.915Z,34.50
2023-02-25T19:57:28.092Z,37.10
2023-02-25T19:59:57.110Z,36.30
2023-02-25T20:02:26.694Z,35.30
2023-02-25T20:04:56.231Z,35.80
2023-02-25T20:07:25.789Z,34.50
2023-02-25T20:09:54.919Z,33.00
2023-02-25T20:12:23.795Z,34.60
2023-02-25T20:14:52.578Z,36.80
2023-02-25T20:17:21.693Z,35.70
2023-02-25T20:19:50.671Z,36.70
2023-02-25T20:22:23.891Z,37.40
2023-02-25T20:24:52.754Z,35.80
2023-02-25T20:27:21.657Z,34.60
2023-02-25T20:29:50.587Z,37.10
2023-02-25T20:32:19.726Z,38.00
2023-02-25T20:34:51.847Z,37.70
2023-02-25T20:37:23.620Z,37.50
2023-02-25T20:39:54.196Z,37.80
2023-02-25T20:42:25.143Z,37.00
2023-02-25T20:47:27.543Z,37.40
2023-02-25T20:49:58.553Z,34.90
2023-02-25T20:52:28.076Z,35.30
2023-02-25T20:54:58.427Z,36.00
2023-02-25T20:57:31.056Z,34.50
2023-02-25T20:59:59.898Z,38.60
2023-02-25T21:02:29.148Z,35.70
2023-02-25T21:04:58.149Z,36.80
2023-02-25T21:07:27.238Z,36.00
2023-02-25T21:09:56.220Z,34.60
2023-02-25T21:12:25.319Z,35.10
2023-02-25T21:14:54.213Z,36.00
2023-02-25T21:17:23.308Z,37.00
2023-02-25T21:19:52.404Z,34.00
2023-02-25T21:22:26.658Z,35.50
2023-02-25T21:24:55.708Z,37.50
2023-02-25T21:27:25.733Z,37.30
2023-02-25T21:29:56.174Z,33.50
2023-02-25T21:32:25.250Z,33.30
2023-02-25T21:34:55.571Z,36.50
2023-02-25T21:37:24.872Z,36.20
2023-02-25T21:39:54.372Z,35.50
2023-02-25T21:42:23.266Z,34.00
2023-02-25T21:44:52.254Z,33.10
2023-02-25T21:47:21.352Z,33.20
2023-02-25T21:49:51.782Z,34.10
2023-02-25T21:52:20.870Z,33.60
2023-02-25T21:54:49.772Z,32.20
2023-02-25T21:57:18.455Z,32.50
2023-02-25T21:59:47.848Z,35.50
2023-02-25T22:02:16.314Z,33.90
2023-02-25T22:04:48.158Z,33.50
2023-02-25T22:07:17.082Z,34.10
2023-02-25T22:09:45.986Z,34.30
2023-02-25T22:12:15.272Z,35.20
2023-02-25T22:14:44.471Z,32.70
2023-02-25T22:17:13.565Z,32.00
2023-02-25T22:19:42.677Z,30.70
2023-02-25T22:22:13.566Z,32.20
2023-02-25T22:24:43.602Z,28.20
2023-02-25T22:27:12.557Z,28.40
2023-02-25T22:29:41.911Z,30.90
2023-02-25T22:32:11.534Z,28.70
2023-02-25T22:34:41.335Z,30.70
2023-02-25T22:37:10.428Z,27.60
2023-02-25T22:39:41.679Z,27.00
2023-02-25T22:42:10.461Z,28.60
2023-02-25T22:44:40.684Z,28.20
2023-02-25T22:47:09.573Z,28.80
2023-02-25T22:49:38.270Z,29.40
2023-02-25T22:52:07.104Z,29.50
2023-02-25T22:54:36.061Z,32.10
2023-02-25T22:57:05.249Z,29.70
2023-02-25T22:59:34.422Z,27.90
2023-02-25T23:02:03.425Z,29.10
2023-02-25T23:04:34.272Z,29.90
2023-02-25T23:07:03.662Z,28.10
2023-02-25T23:09:32.574Z,27.70
2023-02-25T23:12:03.308Z,28.90
2023-02-25T23:14:34.618Z,28.20
2023-02-25T23:17:03.318Z,28.60
2023-02-25T23:19:32.108Z,29.80
2023-02-25T23:22:01.009Z,30.30
2023-02-25T23:24:30.502Z,31.40
2023-02-25T23:26:59.527Z,27.90
2023-02-25T23:29:27.649Z,28.10
2023-02-25T23:31:56.388Z,30.00
2023-02-25T23:34:25.147Z,32.60
2023-02-25T23:36:56.678Z,29.20
2023-02-25T23:39:25.424Z,28.10
2023-02-25T23:41:53.938Z,29.00
2023-02-25T23:44:25.825Z,29.30
2023-02-25T23:46:55.732Z,23.80
2023-02-25T23:49:24.740Z,25.10
2023-02-25T23:51:53.617Z,26.00
2023-02-25T23:54:22.939Z,26.70
2023-02-25T23:56:51.911Z,26.90
2023-02-25T23:59:22.823Z,26.40
